Time;durP1;ratioP1;P1;durP2;ratioP2;P2;SDS_P1;SDS_P2;PMS_P1;PMS_P2;Temp;Humidity;BMP_temperature;BMP_pressure;BME280_temperature;BME280_humidity;BME280_pressure;Samples;Min_cycle;Max_cycle;Signal;HPM_P1;HPM_P2
2023/06/04 00:02:22;;;;;;;5.55;2.70;;;15.30;91.10;;;;;;4996149;28;20217;-73
2023/06/04 00:04:48;;;;;;;6.07;3.63;;;15.30;91.30;;;;;;5004414;28;20259;-73
2023/06/04 00:07:13;;;;;;;4.70;3.37;;;15.30;91.40;;;;;;4998972;28;20225;-73
2023/06/04 00:09:39;;;;;;;4.70;3.00;;;15.30;91.40;;;;;;5004627;28;20652;-75
2023/06/04 00:12:05;;;;;;;7.20;3.13;;;15.30;91.50;;;;;;5002822;28;20212;-73
2023/06/04 00:14:31;;;;;;;4.18;2.72;;;15.30;91.50;;;;;;5005126;28;20215;-73
2023/06/04 00:16:56;;;;;;;4.80;2.60;;;15.30;91.70;;;;;;4999631;28;20213;-72
2023/06/04 00:19:22;;;;;;;5.18;2.97;;;15.20;91.70;;;;;;5001475;28;20706;-73
2023/06/04 00:21:48;;;;;;;7.47;3.27;;;15.20;91.90;;;;;;5003443;28;20229;-75
2023/06/04 00:24:13;;;;;;;2.33;2.10;;;15.20;92.20;;;;;;4996556;28;20264;-73
2023/06/04 00:26:39;;;;;;;3.23;2.50;;;15.20;92.40;;;;;;5002656;28;20221;-74
2023/06/04 00:29:05;;;;;;;5.83;2.83;;;15.10;92.60;;;;;;4999886;28;20216;-74
2023/06/04 00:31:31;;;;;;;3.50;2.40;;;15.10;92.90;;;;;;5001688;28;20212;-73
2023/06/04 00:33:56;;;;;;;4.65;2.15;;;15.00;93.00;;;;;;4999830;28;20593;-73
2023/06/04 00:36:22;;;;;;;5.13;2.90;;;15.00;93.30;;;;;;4998652;28;20225;-73
2023/06/04 00:38:48;;;;;;;7.30;2.60;;;15.10;93.50;;;;;;5001205;28;20207;-74
2023/06/04 00:41:13;;;;;;;3.13;2.17;;;15.10;93.60;;;;;;4998993;28;20205;-74
2023/06/04 00:43:39;;;;;;;3.30;2.17;;;15.10;93.90;;;;;;5001752;28;20293;-75
2023/06/04 00:46:06;;;;;;;3.20;2.05;;;15.00;94.00;;;;;;5001360;28;20217;-74
2023/06/04 00:48:32;;;;;;;10.23;6.10;;;14.90;94.20;;;;;;5000118;28;20673;-73
2023/06/04 00:50:58;;;;;;;24.10;15.47;;;14.90;94.50;;;;;;4999891;28;20177;-74
2023/06/04 00:53:25;;;;;;;16.52;10.45;;;14.90;94.80;;;;;;5000912;28;20176;-74
2023/06/04 00:55:51;;;;;;;13.83;7.60;;;14.90;95.00;;;;;;4998702;28;20766;-74
2023/06/04 00:58:17;;;;;;;16.27;9.15;;;14.90;95.10;;;;;;5000149;28;20332;-74
2023/06/04 01:00:44;;;;;;;17.50;9.52;;;14.90;95.30;;;;;;5001161;28;20568;-74
2023/06/04 01:03:19;;;;;;;14.48;8.23;;;14.90;95.60;;;;;;5001748;28;20177;-74
2023/06/04 01:05:51;;;;;;;18.10;10.45;;;14.90;95.80;;;;;;4999982;28;20757;-74
2023/06/04 01:08:18;;;;;;;10.20;6.00;;;14.90;96.20;;;;;;4998817;28;20291;-73
2023/06/04 01:10:53;;;;;;;9.97;6.27;;;14.80;96.40;;;;;;5000886;28;20233;-74
2023/06/04 01:13:19;;;;;;;9.67;5.23;;;14.80;96.40;;;;;;4998646;28;20206;-73
2023/06/04 01:15:45;;;;;;;6.03;2.07;;;14.70;96.70;;;;;;5004151;28;20819;-75
2023/06/04 01:18:27;;;;;;;6.45;3.25;;;14.70;96.70;;;;;;4998840;28;20648;-73
2023/06/04 01:21:07;;;;;;;4.57;2.87;;;14.60;97.00;;;;;;5000217;28;20192;-76
2023/06/04 01:23:43;;;;;;;4.63;2.00;;;14.60;97.30;;;;;;5004610;28;20252;-72
2023/06/04 01:26:10;;;;;;;4.32;3.08;;;14.60;97.60;;;;;;5002945;28;20217;-73
2023/06/04 01:28:36;;;;;;;6.33;3.23;;;14.60;98.00;;;;;;5005538;28;20287;-75
2023/06/04 01:31:04;;;;;;;5.00;3.30;;;14.60;98.40;;;;;;5005632;28;20678;-73
2023/06/04 01:33:30;;;;;;;5.25;2.70;;;14.60;98.80;;;;;;5006746;28;20251;-74
2023/06/04 01:35:56;;;;;;;7.43;2.90;;;14.60;99.50;;;;;;5006477;28;20306;-73
2023/06/04 01:38:21;;;;;;;3.28;2.60;;;14.60;99.90;;;;;;5004064;28;20184;-73
2023/06/04 01:40:47;;;;;;;3.35;2.53;;;14.60;99.90;;;;;;5008762;28;20259;-73
2023/06/04 01:43:13;;;;;;;2.87;2.10;;;14.50;99.90;;;;;;5002490;28;20264;-73
2023/06/04 01:45:39;;;;;;;5.57;3.30;;;14.50;99.90;;;;;;5003581;28;20263;-74
2023/06/04 01:48:06;;;;;;;3.50;1.80;;;14.40;99.90;;;;;;5003742;28;20653;-73
2023/06/04 01:50:32;;;;;;;5.10;3.10;;;14.40;99.90;;;;;;5002558;28;20197;-72
2023/06/04 01:52:58;;;;;;;4.73;2.90;;;14.40;99.90;;;;;;5004895;28;20205;-73
2023/06/04 01:55:29;;;;;;;5.27;2.27;;;14.40;99.90;;;;;;5000773;28;20205;-74
2023/06/04 01:57:54;;;;;;;2.47;2.00;;;14.40;99.90;;;;;;5002269;28;20291;-73
2023/06/04 02:00:20;;;;;;;2.93;2.10;;;14.30;99.90;;;;;;5000161;28;20472;-73
2023/06/04 02:02:47;;;;;;;3.97;2.07;;;14.30;99.90;;;;;;5006745;28;20181;-73
2023/06/04 02:05:13;;;;;;;3.17;2.33;;;14.30;99.90;;;;;;5002063;28;20639;-74
2023/06/04 02:07:44;;;;;;;3.70;2.07;;;14.30;99.90;;;;;;5001466;28;20205;-73
2023/06/04 02:10:18;;;;;;;3.53;2.27;;;14.30;99.90;;;;;;5005111;28;20708;-74
2023/06/04 02:13:04;;;;;;;4.20;2.33;;;14.20;99.90;;;;;;5004602;28;20197;-73
2023/06/04 02:15:31;;;;;;;4.30;2.43;;;14.20;99.90;;;;;;5003279;28;20220;-75
2023/06/04 02:18:02;;;;;;;4.37;2.50;;;14.20;99.90;;;;;;5002285;28;20185;-73
2023/06/04 02:20:28;;;;;;;4.63;2.60;;;14.20;99.90;;;;;;5003971;28;20177;-72
2023/06/04 02:22:55;;;;;;;5.10;2.73;;;14.10;99.90;;;;;;5001846;28;20584;-73
2023/06/04 02:25:21;;;;;;;2.80;2.27;;;14.10;99.90;;;;;;5000780;28;20987;-74
2023/06/04 02:27:47;;;;;;;3.57;2.53;;;14.10;99.90;;;;;;4999450;28;20264;-73
2023/06/04 02:30:12;;;;;;;4.07;2.43;;;14.10;99.90;;;;;;5001705;28;20181;-72
2023/06/04 02:32:39;;;;;;;4.03;2.30;;;14.10;99.90;;;;;;5002393;28;20271;-73
2023/06/04 02:35:05;;;;;;;3.30;2.20;;;14.10;99.90;;;;;;5004444;28;20623;-71
2023/06/04 02:37:30;;;;;;;3.57;2.67;;;14.10;99.90;;;;;;5001588;28;20236;-74
2023/06/04 02:39:56;;;;;;;4.50;2.53;;;14.00;99.90;;;;;;5002475;28;20232;-73
2023/06/04 02:42:21;;;;;;;3.67;2.80;;;14.00;99.90;;;;;;5000523;28;20217;-72
2023/06/04 02:44:47;;;;;;;4.57;3.27;;;14.00;99.90;;;;;;5001021;28;20173;-73
2023/06/04 02:47:13;;;;;;;4.90;3.00;;;14.00;99.90;;;;;;5000192;28;20229;-74
2023/06/04 02:49:39;;;;;;;5.73;2.90;;;13.90;99.90;;;;;;5003696;28;20208;-74
2023/06/04 02:52:05;;;;;;;5.87;2.70;;;14.00;99.90;;;;;;5004522;28;20217;-72
2023/06/04 02:54:30;;;;;;;3.27;2.50;;;13.90;99.90;;;;;;5003952;28;20236;-74
2023/06/04 02:56:56;;;;;;;4.27;2.83;;;13.90;99.90;;;;;;5006617;28;20204;-75
2023/06/04 02:59:22;;;;;;;4.47;2.80;;;13.90;99.90;;;;;;5002449;28;20187;-74
2023/06/04 03:01:48;;;;;;;5.63;2.67;;;13.90;99.90;;;;;;5002394;28;20688;-73
2023/06/04 03:04:15;;;;;;;6.10;2.87;;;13.90;99.90;;;;;;5008700;28;20590;-74
2023/06/04 03:06:44;;;;;;;6.03;4.00;;;13.80;99.90;;;;;;5007752;28;20263;-74
2023/06/04 03:09:11;;;;;;;4.53;3.20;;;13.80;99.90;;;;;;5006946;28;20227;-73
2023/06/04 03:11:36;;;;;;;6.73;3.07;;;13.80;99.90;;;;;;5007098;28;20268;-73
2023/06/04 03:14:02;;;;;;;5.20;2.70;;;13.70;99.90;;;;;;5002642;28;20288;-74
2023/06/04 03:16:28;;;;;;;6.23;2.63;;;13.70;99.90;;;;;;5000807;28;20213;-72
2023/06/04 03:18:53;;;;;;;4.10;2.63;;;13.70;99.90;;;;;;5006455;28;20632;-75
2023/06/04 03:21:19;;;;;;;3.40;2.63;;;13.70;99.90;;;;;;4999755;28;20221;-73
2023/06/04 03:23:45;;;;;;;4.13;2.23;;;13.70;99.90;;;;;;5004417;28;20656;-73
2023/06/04 03:26:12;;;;;;;5.07;2.77;;;13.70;99.90;;;;;;5001396;28;20708;-74
2023/06/04 03:28:38;;;;;;;5.13;2.47;;;13.90;99.90;;;;;;5004857;28;20296;-74
2023/06/04 03:31:04;;;;;;;5.65;2.67;;;14.20;99.90;;;;;;5000831;28;20695;-74
2023/06/04 03:33:30;;;;;;;5.30;2.63;;;14.50;99.90;;;;;;5002372;28;20244;-76
2023/06/04 03:35:59;;;;;;;3.28;1.90;;;14.90;99.90;;;;;;4999425;28;20274;-73
2023/06/04 03:40:52;;;;;;;2.70;2.00;;;15.50;99.90;;;;;;5058168;22;20789;-73
2023/06/04 03:43:18;;;;;;;2.85;2.13;;;15.90;99.90;;;;;;5038345;28;20696;-73
2023/06/04 03:45:44;;;;;;;3.97;2.58;;;16.50;99.90;;;;;;5034773;28;20273;-74
2023/06/04 03:48:10;;;;;;;5.85;2.28;;;16.80;99.90;;;;;;5031345;28;20177;-74
2023/06/04 03:50:36;;;;;;;2.80;1.98;;;17.30;99.90;;;;;;5029638;28;20279;-73
2023/06/04 03:53:04;;;;;;;7.13;2.58;;;17.90;99.90;;;;;;5018748;28;20288;-73
2023/06/04 03:55:32;;;;;;;3.58;2.20;;;18.40;99.90;;;;;;5012462;28;20562;-74
2023/06/04 03:57:58;;;;;;;3.70;2.20;;;18.80;99.90;;;;;;5027812;28;20425;-73
2023/06/04 04:00:23;;;;;;;6.53;2.67;;;19.10;99.90;;;;;;5010822;28;20278;-73
2023/06/04 04:02:49;;;;;;;3.83;2.55;;;19.30;99.90;;;;;;5019467;28;20256;-73
2023/06/04 04:05:15;;;;;;;3.70;2.42;;;19.60;99.90;;;;;;5019225;28;20207;-73
2023/06/04 04:07:41;;;;;;;3.10;2.03;;;19.80;99.90;;;;;;5020570;28;20280;-74
2023/06/04 04:10:07;;;;;;;3.13;2.28;;;20.20;99.90;;;;;;5022608;28;20587;-74
2023/06/04 04:12:33;;;;;;;4.30;2.47;;;20.40;99.90;;;;;;5016280;28;20704;-73
2023/06/04 04:14:59;;;;;;;3.35;2.33;;;20.60;99.90;;;;;;5013783;28;20189;-74
2023/06/04 04:17:26;;;;;;;12.23;2.40;;;21.10;99.90;;;;;;5021048;28;20177;-74
2023/06/04 04:19:51;;;;;;;3.60;2.38;;;21.60;99.90;;;;;;5017573;28;20288;-74
2023/06/04 04:22:17;;;;;;;4.55;2.05;;;21.90;99.40;;;;;;5020701;28;20299;-74
2023/06/04 04:24:43;;;;;;;6.13;2.35;;;22.00;98.10;;;;;;5013966;28;20200;-74
2023/06/04 04:27:12;;;;;;;5.40;2.38;;;22.10;97.40;;;;;;5017805;28;20204;-74
2023/06/04 04:29:38;;;;;;;3.97;2.13;;;22.40;96.60;;;;;;5015399;28;20202;-74
2023/06/04 04:32:10;;;;;;;5.35;2.20;;;22.60;96.00;;;;;;5023012;28;20287;-75
2023/06/04 04:34:43;;;;;;;3.38;2.13;;;22.90;95.60;;;;;;5017949;28;20588;-74
2023/06/04 04:37:09;;;;;;;5.75;2.28;;;23.00;95.00;;;;;;5013017;28;20220;-75
2023/06/04 04:39:36;;;;;;;2.85;2.40;;;22.90;94.40;;;;;;5015929;28;20235;-74
2023/06/04 04:42:02;;;;;;;3.30;1.90;;;23.50;94.00;;;;;;5025624;28;20267;-74
2023/06/04 04:44:28;;;;;;;4.47;2.22;;;23.80;94.00;;;;;;5024698;28;20177;-74
2023/06/04 04:46:53;;;;;;;4.00;2.13;;;24.20;93.30;;;;;;5019446;28;20262;-74
2023/06/04 04:49:19;;;;;;;3.80;2.58;;;24.30;92.90;;;;;;5017893;28;20213;-74
2023/06/04 04:51:45;;;;;;;3.67;1.90;;;24.40;91.40;;;;;;5019051;28;20630;-75
2023/06/04 04:54:10;;;;;;;4.13;2.22;;;24.70;90.30;;;;;;5012604;28;20652;-74
2023/06/04 04:56:36;;;;;;;3.92;2.15;;;24.50;90.30;;;;;;5016105;28;20644;-74
2023/06/04 04:59:02;;;;;;;3.03;2.40;;;24.80;90.90;;;;;;5024621;28;20699;-74
2023/06/04 05:01:27;;;;;;;4.75;2.20;;;24.90;89.70;;;;;;5029537;28;20208;-74
2023/06/04 05:03:53;;;;;;;3.70;2.38;;;25.20;88.00;;;;;;5021753;28;20306;-75
2023/06/04 05:06:19;;;;;;;3.30;2.20;;;25.50;86.80;;;;;;5008098;28;20235;-74
2023/06/04 05:08:45;;;;;;;3.33;2.08;;;25.70;87.10;;;;;;5007201;28;20649;-74
2023/06/04 05:11:11;;;;;;;3.22;2.15;;;26.00;86.40;;;;;;5011111;28;20216;-74
2023/06/04 05:13:36;;;;;;;4.22;2.58;;;26.40;83.90;;;;;;5013998;28;20278;-74
2023/06/04 05:16:11;;;;;;;5.20;2.20;;;26.30;84.50;;;;;;5030301;28;20627;-74
2023/06/04 05:18:44;;;;;;;5.88;2.25;;;26.90;83.70;;;;;;5021902;28;20740;-74
2023/06/04 05:21:12;;;;;;;3.85;2.22;;;26.50;82.60;;;;;;5015696;28;20173;-74
2023/06/04 05:23:38;;;;;;;4.28;2.30;;;26.40;83.20;;;;;;5012524;28;20201;-75
2023/06/04 05:26:05;;;;;;;2.88;2.10;;;26.40;83.50;;;;;;5019963;28;20220;-74
2023/06/04 05:28:34;;;;;;;4.63;2.47;;;26.30;83.40;;;;;;5019953;28;20209;-74
2023/06/04 05:31:00;;;;;;;3.75;1.98;;;26.70;83.00;;;;;;5020290;28;20216;-74
2023/06/04 05:33:26;;;;;;;7.47;2.60;;;27.20;82.50;;;;;;5010843;28;20296;-74
2023/06/04 05:35:53;;;;;;;4.30;2.75;;;27.30;80.90;;;;;;5023289;28;20180;-74
2023/06/04 05:38:20;;;;;;;3.40;2.33;;;28.00;80.00;;;;;;5021303;28;20568;-74
2023/06/04 05:40:46;;;;;;;3.03;2.50;;;28.10;78.50;;;;;;5013646;28;20649;-74
2023/06/04 05:43:11;;;;;;;2.45;2.00;;;28.40;77.40;;;;;;5017374;28;20200;-74
2023/06/04 05:45:37;;;;;;;2.85;2.03;;;28.60;76.20;;;;;;5023750;28;20205;-76
2023/06/04 05:48:04;;;;;;;6.07;3.35;;;28.40;76.40;;;;;;5020713;28;20542;-74
2023/06/04 05:50:30;;;;;;;5.68;2.95;;;28.70;75.10;;;;;;5007751;28;20683;-75
2023/06/04 05:52:56;;;;;;;2.78;2.20;;;28.60;74.90;;;;;;5018243;28;20235;-76
2023/06/04 05:55:22;;;;;;;5.53;2.30;;;29.20;73.80;;;;;;5012082;28;20216;-74
2023/06/04 05:57:51;;;;;;;3.10;2.60;;;28.90;72.40;;;;;;5015737;28;20826;-76
2023/06/04 06:00:17;;;;;;;3.63;2.00;;;28.80;72.80;;;;;;5017611;28;20225;-76
2023/06/04 06:02:43;;;;;;;2.05;1.85;;;28.80;72.70;;;;;;5016521;28;20208;-76
2023/06/04 06:05:09;;;;;;;3.08;1.83;;;28.20;68.20;;;;;;5018860;28;20257;-75
2023/06/04 06:07:35;;;;;;;3.05;1.90;;;28.00;68.90;;;;;;5021976;28;21991;-75
2023/06/04 06:10:01;;;;;;;2.97;1.60;;;28.80;68.10;;;;;;5018920;28;20220;-76
2023/06/04 06:12:27;;;;;;;3.20;2.90;;;28.20;66.00;;;;;;5017932;28;20300;-75
2023/06/04 06:14:52;;;;;;;4.32;2.38;;;27.00;67.30;;;;;;5018014;28;20227;-76
2023/06/04 06:17:18;;;;;;;2.58;2.00;;;27.50;67.30;;;;;;5023595;28;20216;-74
2023/06/04 06:19:44;;;;;;;2.15;1.42;;;27.80;68.40;;;;;;5010106;28;20216;-76
2023/06/04 06:22:10;;;;;;;3.00;1.95;;;28.40;68.00;;;;;;5023734;28;20205;-75
2023/06/04 06:24:36;;;;;;;2.70;1.70;;;28.50;66.90;;;;;;5007006;28;20212;-74
2023/06/04 06:27:01;;;;;;;3.63;2.00;;;28.80;66.80;;;;;;5018366;28;20192;-76
2023/06/04 06:29:27;;;;;;;1.90;1.52;;;28.30;65.10;;;;;;5012699;28;20246;-75
2023/06/04 06:31:52;;;;;;;3.72;1.85;;;28.30;66.30;;;;;;5014773;28;20280;-75
2023/06/04 06:34:18;;;;;;;2.13;1.73;;;28.20;66.60;;;;;;5018011;28;20295;-75
2023/06/04 06:36:44;;;;;;;3.28;1.70;;;29.30;64.40;;;;;;5015751;28;20624;-76
2023/06/04 06:39:10;;;;;;;3.35;1.98;;;28.20;63.30;;;;;;5022727;28;20211;-76
2023/06/04 06:41:38;;;;;;;4.00;1.45;;;29.30;65.20;;;;;;5017508;28;20184;-75
2023/06/04 06:44:04;;;;;;;9.65;7.50;;;30.00;64.50;;;;;;5019375;28;20254;-76
2023/06/04 06:46:30;;;;;;;13.20;10.38;;;30.20;62.80;;;;;;5020544;28;20222;-75
2023/06/04 06:48:56;;;;;;;1.88;1.52;;;30.50;61.10;;;;;;5026101;28;20199;-76
2023/06/04 06:51:21;;;;;;;4.22;1.80;;;30.30;59.80;;;;;;5019398;28;20223;-75
2023/06/04 06:53:49;;;;;;;3.72;0.93;;;29.80;60.20;;;;;;5016530;28;20181;-77
2023/06/04 06:56:15;;;;;;;4.03;1.67;;;30.20;56.50;;;;;;5017830;28;20269;-76
2023/06/04 06:58:41;;;;;;;3.10;1.75;;;28.80;58.40;;;;;;5003217;28;20201;-75
2023/06/04 07:01:06;;;;;;;3.75;1.90;;;28.30;58.60;;;;;;5016166;28;20287;-75
2023/06/04 07:03:32;;;;;;;3.10;0.85;;;28.80;59.20;;;;;;5019718;28;20226;-76
2023/06/04 07:05:58;;;;;;;3.78;1.55;;;29.40;57.20;;;;;;5020932;28;20800;-76
2023/06/04 07:08:23;;;;;;;2.38;1.33;;;30.50;57.50;;;;;;5019088;28;20205;-75
2023/06/04 07:10:49;;;;;;;2.60;1.48;;;29.90;55.60;;;;;;5014375;28;20224;-76
2023/06/04 07:13:15;;;;;;;1.95;1.00;;;29.60;56.50;;;;;;5013881;28;20209;-74
2023/06/04 07:15:41;;;;;;;3.83;1.45;;;30.30;56.40;;;;;;5023489;28;20205;-76
2023/06/04 07:18:06;;;;;;;1.48;1.25;;;30.30;54.80;;;;;;5026536;28;20653;-76
2023/06/04 07:20:32;;;;;;;19.73;16.52;;;29.40;55.20;;;;;;5020961;28;20207;-76
2023/06/04 07:22:57;;;;;;;4.68;3.25;;;30.70;55.00;;;;;;5015760;28;20215;-76
2023/06/04 07:25:23;;;;;;;4.70;3.20;;;31.20;54.00;;;;;;5017777;28;20213;-76
2023/06/04 07:27:52;;;;;;;3.50;0.95;;;31.30;54.20;;;;;;5022880;28;20215;-75
2023/06/04 07:30:18;;;;;;;1.67;1.27;;;31.60;53.50;;;;;;5015373;28;20245;-76
2023/06/04 07:32:50;;;;;;;1.50;1.40;;;31.60;53.50;;;;;;5019904;28;20268;-75
2023/06/04 07:35:16;;;;;;;6.13;1.33;;;31.60;53.90;;;;;;5010511;28;20695;-75
2023/06/04 07:37:44;;;;;;;1.58;1.00;;;31.40;53.40;;;;;;5009602;28;20281;-76
2023/06/04 07:40:11;;;;;;;1.27;1.10;;;31.90;53.90;;;;;;5008162;28;20228;-75
2023/06/04 07:42:37;;;;;;;1.33;1.05;;;31.10;53.40;;;;;;5027865;28;20220;-74
2023/06/04 07:45:03;;;;;;;1.95;1.10;;;31.20;53.40;;;;;;5019109;28;20178;-74
2023/06/04 07:47:29;;;;;;;2.33;1.38;;;32.10;53.30;;;;;;5025822;28;20216;-75
2023/06/04 07:49:54;;;;;;;1.65;1.05;;;32.30;52.70;;;;;;5011673;28;20233;-74
2023/06/04 07:52:20;;;;;;;1.33;1.17;;;31.20;51.50;;;;;;5020277;28;20209;-75
2023/06/04 07:54:46;;;;;;;2.47;1.70;;;30.70;52.10;;;;;;5014073;28;20200;-74
2023/06/04 07:57:12;;;;;;;2.88;1.50;;;30.00;53.10;;;;;;5013016;28;20180;-74
2023/06/04 07:59:38;;;;;;;2.05;1.20;;;29.90;54.00;;;;;;5012012;28;20192;-74
2023/06/04 08:02:03;;;;;;;1.55;1.00;;;29.80;53.70;;;;;;5018925;28;20205;-74
2023/06/04 08:04:29;;;;;;;12.45;11.15;;;30.10;54.30;;;;;;5019849;28;20277;-75
2023/06/04 08:06:55;;;;;;;4.13;1.85;;;30.70;53.20;;;;;;5022445;28;20212;-75
2023/06/04 08:09:21;;;;;;;3.78;1.55;;;29.90;53.50;;;;;;5021230;28;20704;-74
2023/06/04 08:11:47;;;;;;;3.13;1.90;;;29.80;53.90;;;;;;5020692;28;20203;-74
2023/06/04 08:14:13;;;;;;;2.60;1.23;;;30.70;53.40;;;;;;5003164;28;20757;-74
2023/06/04 08:16:40;;;;;;;2.10;1.20;;;31.40;52.90;;;;;;5010705;28;20212;-74
2023/06/04 08:19:07;;;;;;;5.10;1.20;;;31.40;51.90;;;;;;5012118;28;20211;-74
2023/06/04 08:21:33;;;;;;;1.63;1.10;;;31.10;51.70;;;;;;5015032;28;20272;-74
2023/06/04 08:24:00;;;;;;;2.72;1.25;;;31.50;52.10;;;;;;5006151;28;20231;-74
2023/06/04 08:26:26;;;;;;;2.35;1.30;;;31.70;51.40;;;;;;5007996;28;20200;-74
2023/06/04 08:28:53;;;;;;;1.92;0.90;;;31.40;51.10;;;;;;5017652;28;20205;-75
2023/06/04 08:31:18;;;;;;;1.73;1.13;;;31.20;51.90;;;;;;5020628;28;20211;-75
2023/06/04 08:33:47;;;;;;;1.77;1.20;;;30.80;51.80;;;;;;5018132;28;20213;-75
2023/06/04 08:36:13;;;;;;;1.98;1.30;;;30.30;52.40;;;;;;5016841;28;20202;-74
2023/06/04 08:38:39;;;;;;;2.35;1.30;;;29.90;52.30;;;;;;5011059;28;20224;-76
2023/06/04 08:41:56;;;;;;;3.38;1.00;;;29.90;53.00;;;;;;5019588;28;20292;-75
2023/06/04 08:44:21;;;;;;;0.93;0.82;;;29.30;52.30;;;;;;4980831;28;20303;-75
2023/06/04 08:46:52;;;;;;;1.70;1.10;;;29.70;52.30;;;;;;5023664;28;20303;-76
2023/06/04 08:49:21;;;;;;;2.03;1.08;;;28.90;52.60;;;;;;5019288;28;20295;-75
2023/06/04 08:51:47;;;;;;;3.28;1.38;;;28.30;54.00;;;;;;5022604;28;20211;-75
2023/06/04 08:54:13;;;;;;;3.08;1.10;;;27.70;53.50;;;;;;5005062;28;20258;-75
2023/06/04 08:56:39;;;;;;;2.42;1.42;;;28.00;54.10;;;;;;5019806;28;20699;-75
2023/06/04 08:59:09;;;;;;;2.17;1.13;;;28.20;53.80;;;;;;5017804;28;20220;-75
2023/06/04 09:01:36;;;;;;;2.67;1.45;;;28.00;53.80;;;;;;5015385;28;20212;-75
2023/06/04 09:04:05;;;;;;;3.75;1.58;;;26.20;54.80;;;;;;5005698;28;20213;-75
2023/06/04 09:06:32;;;;;;;3.15;1.38;;;25.50;55.80;;;;;;5024339;28;20228;-75
2023/06/04 09:08:59;;;;;;;1.92;1.00;;;25.40;56.10;;;;;;5006414;28;20268;-74
2023/06/04 09:11:37;;;;;;;3.20;1.10;;;24.80;56.50;;;;;;5012708;28;20550;-74
2023/06/04 09:14:08;;;;;;;1.42;0.93;;;25.10;56.80;;;;;;5008111;28;20254;-74
2023/06/04 09:16:50;;;;;;;2.78;1.05;;;25.00;56.50;;;;;;5008650;28;20205;-74
2023/06/04 09:19:17;;;;;;;1.55;1.10;;;25.20;56.90;;;;;;5016671;28;20205;-74
2023/06/04 09:22:03;;;;;;;2.95;1.30;;;25.50;57.20;;;;;;5019632;28;20219;-74
2023/06/04 09:24:44;;;;;;;6.93;6.07;;;26.30;57.00;;;;;;5014136;28;20219;-74
2023/06/04 09:27:19;;;;;;;1.98;1.25;;;26.60;56.40;;;;;;5019429;28;20203;-74
2023/06/04 09:29:56;;;;;;;2.85;1.20;;;26.70;55.10;;;;;;5021317;28;20686;-72
2023/06/04 09:32:31;;;;;;;3.00;1.30;;;26.10;55.50;;;;;;5002729;28;20205;-75
2023/06/04 09:35:18;;;;;;;4.25;1.50;;;26.40;56.20;;;;;;5003588;28;20296;-73
2023/06/04 09:38:04;;;;;;;2.60;1.30;;;25.60;56.10;;;;;;5022036;28;20586;-75
2023/06/04 09:40:37;;;;;;;4.28;1.00;;;25.30;56.20;;;;;;5025129;23;20630;-76
2023/06/04 09:43:03;;;;;;;2.17;1.00;;;25.40;56.50;;;;;;5011380;28;20205;-75
2023/06/04 09:45:30;;;;;;;1.30;0.95;;;24.90;56.60;;;;;;5009397;28;20213;-75
2023/06/04 09:47:56;;;;;;;1.55;1.20;;;24.40;57.10;;;;;;5018470;28;20189;-76
2023/06/04 09:50:31;;;;;;;1.08;0.95;;;24.20;57.50;;;;;;5006400;28;20201;-76
2023/06/04 09:52:57;;;;;;;2.63;1.27;;;24.20;57.10;;;;;;5005333;28;20288;-76
2023/06/04 09:55:23;;;;;;;3.72;1.65;;;24.20;57.80;;;;;;5002544;28;20209;-76
2023/06/04 09:57:50;;;;;;;2.33;1.25;;;24.40;57.80;;;;;;5006888;28;20212;-75
2023/06/04 10:00:17;;;;;;;2.95;1.10;;;24.90;58.00;;;;;;5003539;28;20714;-73
2023/06/04 10:02:45;;;;;;;1.80;1.10;;;24.60;56.70;;;;;;5002838;28;20213;-76
2023/06/04 10:05:14;;;;;;;2.45;1.00;;;24.70;56.90;;;;;;5003079;28;20221;-76
2023/06/04 10:07:44;;;;;;;1.52;0.95;;;25.20;56.30;;;;;;5000624;28;20222;-76
2023/06/04 10:10:16;;;;;;;1.35;1.05;;;25.30;56.40;;;;;;5007631;28;20233;-76
2023/06/04 10:12:42;;;;;;;2.05;1.13;;;25.00;56.70;;;;;;5001133;28;20209;-76
2023/06/04 10:15:12;;;;;;;2.22;1.42;;;25.00;57.40;;;;;;5002835;28;20174;-75
2023/06/04 10:17:39;;;;;;;2.25;1.17;;;25.50;57.10;;;;;;5002801;28;20219;-76
2023/06/04 10:20:08;;;;;;;2.92;1.13;;;25.90;56.70;;;;;;5002649;28;20210;-75
2023/06/04 10:22:35;;;;;;;3.05;1.67;;;25.30;57.60;;;;;;5002522;28;20236;-75
2023/06/04 10:25:01;;;;;;;4.80;1.10;;;25.50;57.10;;;;;;5002141;28;20251;-75
2023/06/04 10:27:27;;;;;;;2.47;1.50;;;25.10;57.10;;;;;;5003140;28;20780;-77
2023/06/04 10:29:54;;;;;;;1.80;1.20;;;25.00;57.80;;;;;;5002223;28;20247;-75
2023/06/04 10:32:20;;;;;;;2.63;1.10;;;25.50;57.40;;;;;;5006995;28;20213;-75
2023/06/04 10:34:46;;;;;;;3.08;1.02;;;25.50;57.40;;;;;;5000536;28;20697;-75
2023/06/04 10:37:22;;;;;;;1.52;1.20;;;25.70;56.70;;;;;;5003735;28;20259;-76
2023/06/04 10:39:55;;;;;;;2.78;1.60;;;25.30;57.30;;;;;;5001951;28;20691;-76
2023/06/04 10:42:22;;;;;;;3.53;1.48;;;25.20;57.70;;;;;;5002137;28;20228;-76
2023/06/04 10:44:49;;;;;;;3.65;1.98;;;25.10;57.50;;;;;;5000710;28;20207;-77
2023/06/04 10:47:33;;;;;;;3.05;1.40;;;24.90;56.90;;;;;;5002218;28;20220;-74
2023/06/04 10:50:11;;;;;;;2.90;1.40;;;24.70;58.10;;;;;;4999820;28;20212;-76
2023/06/04 10:52:38;;;;;;;2.00;1.25;;;24.90;57.90;;;;;;5000178;28;20744;-77
2023/06/04 10:55:04;;;;;;;1.35;1.00;;;24.90;57.10;;;;;;4999386;28;20213;-77
2023/06/04 10:57:31;;;;;;;2.28;1.52;;;25.20;57.60;;;;;;5004095;28;20227;-76
2023/06/04 10:59:58;;;;;;;1.75;1.15;;;24.90;56.60;;;;;;5003778;28;20188;-76
2023/06/04 11:02:25;;;;;;;2.97;1.40;;;24.70;57.20;;;;;;5003909;28;20177;-77
2023/06/04 11:05:06;;;;;;;3.78;1.40;;;24.90;57.30;;;;;;4998223;28;20209;-77
2023/06/04 11:07:48;;;;;;;1.20;1.10;;;25.10;56.70;;;;;;5000008;28;20270;-78
2023/06/04 11:10:14;;;;;;;1.77;1.17;;;25.10;58.10;;;;;;5002402;28;20227;-76
2023/06/04 11:12:48;;;;;;;2.17;1.40;;;24.80;57.10;;;;;;4998529;28;20304;-75
2023/06/04 11:15:15;;;;;;;2.10;1.60;;;24.60;57.40;;;;;;5002089;28;20648;-75
2023/06/04 11:17:58;;;;;;;1.75;1.30;;;24.50;57.50;;;;;;5000411;28;20202;-76
2023/06/04 11:20:23;;;;;;;1.40;1.15;;;24.80;57.00;;;;;;5001452;28;20604;-76
2023/06/04 11:22:57;;;;;;;3.97;1.13;;;25.00;57.40;;;;;;5003457;28;20221;-77
2023/06/04 11:25:25;;;;;;;2.03;0.98;;;25.10;56.90;;;;;;4999956;28;20240;-75
2023/06/04 11:27:53;;;;;;;1.77;1.30;;;24.70;56.50;;;;;;4999633;28;20236;-76
2023/06/04 11:30:19;;;;;;;1.52;1.17;;;24.20;56.90;;;;;;5006134;28;20594;-77
2023/06/04 11:32:45;;;;;;;3.00;1.33;;;24.00;57.30;;;;;;5000001;28;20178;-76
2023/06/04 11:35:11;;;;;;;2.65;1.45;;;24.40;58.00;;;;;;5001188;28;20237;-75
2023/06/04 11:37:38;;;;;;;1.30;1.20;;;24.50;56.90;;;;;;5001335;28;20240;-76
2023/06/04 11:40:16;;;;;;;2.35;1.27;;;24.60;57.10;;;;;;5002381;28;20576;-76
2023/06/04 11:42:44;;;;;;;1.92;1.20;;;24.30;57.30;;;;;;4998915;28;20232;-76
2023/06/04 11:45:13;;;;;;;1.75;1.23;;;23.90;57.20;;;;;;5004280;28;20205;-76
2023/06/04 11:47:39;;;;;;;1.77;0.90;;;24.00;57.40;;;;;;5001054;28;20205;-77
2023/06/04 11:50:06;;;;;;;1.75;1.30;;;23.90;57.30;;;;;;5004773;28;20228;-75
2023/06/04 11:52:33;;;;;;;2.30;1.42;;;24.10;57.90;;;;;;5001114;28;20209;-76
2023/06/04 11:54:59;;;;;;;2.15;1.20;;;24.40;59.00;;;;;;5006485;28;20206;-76
2023/06/04 11:57:25;;;;;;;2.85;1.10;;;24.30;57.40;;;;;;5001843;28;20782;-76
2023/06/04 11:59:50;;;;;;;3.60;1.30;;;24.50;58.00;;;;;;5006900;28;20178;-75
2023/06/04 12:02:16;;;;;;;1.58;1.17;;;24.80;58.00;;;;;;5005953;28;20208;-76
2023/06/04 12:04:42;;;;;;;3.63;3.08;;;24.90;57.10;;;;;;5004805;28;20520;-77
2023/06/04 12:07:09;;;;;;;8.68;5.60;;;24.70;57.10;;;;;;4998003;28;20209;-76
2023/06/04 12:09:35;;;;;;;2.40;1.38;;;24.70;57.40;;;;;;5001382;28;20611;-76
2023/06/04 12:12:05;;;;;;;2.05;1.23;;;24.60;56.70;;;;;;4998863;28;20194;-76
2023/06/04 12:14:32;;;;;;;4.93;1.10;;;24.00;56.90;;;;;;5002349;28;20177;-76
2023/06/04 12:17:08;;;;;;;1.30;0.90;;;23.90;57.10;;;;;;4999140;28;20232;-76
2023/06/04 12:19:45;;;;;;;2.95;0.88;;;23.70;57.40;;;;;;5003018;28;20212;-76
2023/06/04 12:22:11;;;;;;;3.53;1.40;;;23.50;57.10;;;;;;4999371;28;20220;-77
2023/06/04 12:24:49;;;;;;;4.15;2.58;;;23.40;57.10;;;;;;5001188;28;20208;-76
2023/06/04 12:27:15;;;;;;;2.33;1.80;;;23.60;58.30;;;;;;5005428;28;20252;-76
2023/06/04 12:29:41;;;;;;;1.95;1.10;;;24.00;58.30;;;;;;4999638;28;20174;-76
2023/06/04 12:32:13;;;;;;;4.05;1.63;;;24.30;58.00;;;;;;5001663;28;20223;-77
2023/06/04 12:34:41;;;;;;;1.80;1.20;;;24.50;58.10;;;;;;4998220;28;20213;-75
2023/06/04 12:37:08;;;;;;;1.60;1.33;;;24.40;56.30;;;;;;5002106;28;20211;-77
2023/06/04 12:39:36;;;;;;;3.20;1.50;;;24.40;57.50;;;;;;4999385;28;20213;-77
2023/06/04 12:42:05;;;;;;;5.03;1.40;;;24.40;57.10;;;;;;5001982;28;20220;-77
2023/06/04 12:44:31;;;;;;;5.38;2.38;;;24.10;57.10;;;;;;4998339;28;20580;-77
2023/06/04 12:46:56;;;;;;;6.05;3.28;;;24.10;57.60;;;;;;4999252;28;20227;-77
2023/06/04 12:49:22;;;;;;;5.78;3.55;;;24.20;58.10;;;;;;5001018;28;20213;-77
2023/06/04 12:51:48;;;;;;;4.82;2.88;;;24.40;57.90;;;;;;4999610;28;20208;-77